sensor_id;sensor_type;location;lat;lon;timestamp;pressure;altitude;pressure_sealevel;temperature;humidity
61961;BME280;47923;42.506;24.192;2022-07-06T00:01:54;95545.44;;;21.15;62.24
61961;BME280;47923;42.506;24.192;2022-07-06T00:04:20;95553.34;;;21.13;62.83
61961;BME280;47923;42.506;24.192;2022-07-06T00:06:46;95481.97;;;20.73;62.31
61961;BME280;47923;42.506;24.192;2022-07-06T00:09:11;95531.69;;;21.15;63.70
61961;BME280;47923;42.506;24.192;2022-07-06T00:11:37;95519.59;;;21.12;63.75
61961;BME280;47923;42.506;24.192;2022-07-06T00:14:03;95410.69;;;20.30;64.56
61961;BME280;47923;42.506;24.192;2022-07-06T00:16:28;95485.94;;;20.72;65.22
61961;BME280;47923;42.506;24.192;2022-07-06T00:18:54;95487.94;;;20.68;65.84
61961;BME280;47923;42.506;24.192;2022-07-06T00:21:20;95459.81;;;20.64;65.96
61961;BME280;47923;42.506;24.192;2022-07-06T00:23:45;95407.22;;;20.26;66.39
61961;BME280;47923;42.506;24.192;2022-07-06T00:26:11;95438.31;;;20.39;66.07
61961;BME280;47923;42.506;24.192;2022-07-06T00:28:36;95419.59;;;20.34;66.18
61961;BME280;47923;42.506;24.192;2022-07-06T00:31:02;95078.13;;;18.11;66.58
61961;BME280;47923;42.506;24.192;2022-07-06T00:33:27;95471.19;;;20.62;67.23
61961;BME280;47923;42.506;24.192;2022-07-06T00:35:53;95098.03;;;18.11;67.63
61961;BME280;47923;42.506;24.192;2022-07-06T00:38:19;95455.78;;;20.49;67.91
61961;BME280;47923;42.506;24.192;2022-07-06T00:40:44;95409.06;;;20.12;68.02
61961;BME280;47923;42.506;24.192;2022-07-06T00:43:10;95450.84;;;20.40;68.34
61961;BME280;47923;42.506;24.192;2022-07-06T00:45:35;95334.16;;;19.52;68.26
61961;BME280;47923;42.506;24.192;2022-07-06T00:48:01;95234.09;;;18.81;68.51
61961;BME280;47923;42.506;24.192;2022-07-06T00:50:27;95327.38;;;19.37;68.71
61961;BME280;47923;42.506;24.192;2022-07-06T00:53:05;95231.59;;;18.63;68.84
61961;BME280;47923;42.506;24.192;2022-07-06T00:55:33;94956.22;;;16.93;68.23
61961;BME280;47923;42.506;24.192;2022-07-06T00:58:03;95392.75;;;19.82;68.57
61961;BME280;47923;42.506;24.192;2022-07-06T01:00:29;95287.50;;;19.13;68.86
61961;BME280;47923;42.506;24.192;2022-07-06T01:02:56;95088.31;;;17.83;68.09
61961;BME280;47923;42.506;24.192;2022-07-06T01:05:22;94992.00;;;17.25;67.50
61961;BME280;47923;42.506;24.192;2022-07-06T01:07:49;95423.25;;;20.07;67.03
61961;BME280;47923;42.506;24.192;2022-07-06T01:10:16;95408.06;;;20.03;66.99
61961;BME280;47923;42.506;24.192;2022-07-06T01:12:45;95235.94;;;18.88;65.68
61961;BME280;47923;42.506;24.192;2022-07-06T01:15:15;95287.63;;;19.29;66.04
61961;BME280;47923;42.506;24.192;2022-07-06T01:17:41;95092.22;;;18.09;65.64
61961;BME280;47923;42.506;24.192;2022-07-06T01:20:17;95283.94;;;19.39;66.07
61961;BME280;47923;42.506;24.192;2022-07-06T01:22:45;95392.66;;;20.09;66.66
61961;BME280;47923;42.506;24.192;2022-07-06T01:25:11;95109.72;;;18.39;66.31
61961;BME280;47923;42.506;24.192;2022-07-06T01:27:39;95363.63;;;20.11;66.37
61961;BME280;47923;42.506;24.192;2022-07-06T01:30:10;95368.19;;;20.18;66.97
61961;BME280;47923;42.506;24.192;2022-07-06T01:32:37;94905.25;;;17.13;66.68
61961;BME280;47923;42.506;24.192;2022-07-06T01:35:05;95306.75;;;19.96;66.11
61961;BME280;47923;42.506;24.192;2022-07-06T01:37:31;95093.03;;;18.53;66.04
61961;BME280;47923;42.506;24.192;2022-07-06T01:40:01;95258.75;;;19.68;65.68
61961;BME280;47923;42.506;24.192;2022-07-06T01:42:27;95255.94;;;19.71;65.97
61961;BME280;47923;42.506;24.192;2022-07-06T01:44:53;95285.25;;;19.94;66.83
61961;BME280;47923;42.506;24.192;2022-07-06T01:47:18;95341.34;;;20.29;67.12
61961;BME280;47923;42.506;24.192;2022-07-06T01:49:44;95315.59;;;20.03;66.62
61961;BME280;47923;42.506;24.192;2022-07-06T01:52:09;95250.13;;;19.69;66.42
61961;BME280;47923;42.506;24.192;2022-07-06T01:54:35;95087.56;;;18.53;66.03
61961;BME280;47923;42.506;24.192;2022-07-06T01:57:00;95377.91;;;20.23;65.86
61961;BME280;47923;42.506;24.192;2022-07-06T01:59:26;95367.63;;;20.27;66.84
61961;BME280;47923;42.506;24.192;2022-07-06T02:01:51;95364.53;;;20.25;66.73
61961;BME280;47923;42.506;24.192;2022-07-06T02:04:17;95368.81;;;20.26;67.00
61961;BME280;47923;42.506;24.192;2022-07-06T02:06:42;95315.88;;;19.89;67.52
61961;BME280;47923;42.506;24.192;2022-07-06T02:09:08;95385.66;;;20.28;67.67
61961;BME280;47923;42.506;24.192;2022-07-06T02:11:33;95386.91;;;20.23;67.85
61961;BME280;47923;42.506;24.192;2022-07-06T02:13:59;95241.78;;;19.33;67.91
61961;BME280;47923;42.506;24.192;2022-07-06T02:16:24;95232.16;;;19.25;68.79
61961;BME280;47923;42.506;24.192;2022-07-06T02:18:49;95313.91;;;19.70;68.37
61961;BME280;47923;42.506;24.192;2022-07-06T02:21:15;95378.94;;;20.09;68.30
61961;BME280;47923;42.506;24.192;2022-07-06T02:23:40;95351.47;;;19.93;69.25
61961;BME280;47923;42.506;24.192;2022-07-06T02:26:06;95384.88;;;20.07;70.05
61961;BME280;47923;42.506;24.192;2022-07-06T02:28:31;95383.22;;;19.90;70.34
61961;BME280;47923;42.506;24.192;2022-07-06T02:30:57;95390.19;;;19.95;70.49
61961;BME280;47923;42.506;24.192;2022-07-06T02:33:23;95389.06;;;19.92;70.69
61961;BME280;47923;42.506;24.192;2022-07-06T02:35:48;95118.31;;;18.14;70.80
61961;BME280;47923;42.506;24.192;2022-07-06T02:38:14;95317.78;;;19.49;70.80
61961;BME280;47923;42.506;24.192;2022-07-06T02:40:39;95377.38;;;19.88;71.11
61961;BME280;47923;42.506;24.192;2022-07-06T02:43:05;95197.31;;;18.59;70.92
61961;BME280;47923;42.506;24.192;2022-07-06T02:45:31;95396.00;;;19.77;71.68
61961;BME280;47923;42.506;24.192;2022-07-06T02:47:57;95233.91;;;18.68;72.28
61961;BME280;47923;42.506;24.192;2022-07-06T02:50:23;95283.47;;;18.97;72.58
61961;BME280;47923;42.506;24.192;2022-07-06T02:52:49;95405.94;;;19.67;72.66
61961;BME280;47923;42.506;24.192;2022-07-06T02:55:15;94897.69;;;16.36;72.19
61961;BME280;47923;42.506;24.192;2022-07-06T02:57:40;95408.28;;;19.69;72.55
61961;BME280;47923;42.506;24.192;2022-07-06T03:00:06;95151.34;;;18.00;71.89
61961;BME280;47923;42.506;24.192;2022-07-06T03:02:32;95399.66;;;19.70;72.87
61961;BME280;47923;42.506;24.192;2022-07-06T03:04:58;95214.22;;;18.50;72.14
61961;BME280;47923;42.506;24.192;2022-07-06T03:07:23;95333.28;;;19.36;72.09
61961;BME280;47923;42.506;24.192;2022-07-06T03:09:49;95272.94;;;18.96;71.97
61961;BME280;47923;42.506;24.192;2022-07-06T03:12:14;95407.66;;;19.81;71.98
61961;BME280;47923;42.506;24.192;2022-07-06T03:14:41;95151.00;;;18.21;72.19
61961;BME280;47923;42.506;24.192;2022-07-06T03:17:07;95398.53;;;19.87;72.27
61961;BME280;47923;42.506;24.192;2022-07-06T03:19:32;95403.91;;;19.95;72.04
61961;BME280;47923;42.506;24.192;2022-07-06T03:21:58;95373.56;;;19.82;71.64
61961;BME280;47923;42.506;24.192;2022-07-06T03:24:23;95035.25;;;17.57;70.43
61961;BME280;47923;42.506;24.192;2022-07-06T03:26:49;95399.63;;;20.13;70.06
61961;BME280;47923;42.506;24.192;2022-07-06T03:29:14;95364.41;;;19.92;71.38
61961;BME280;47923;42.506;24.192;2022-07-06T03:31:40;95403.72;;;20.05;71.40
61961;BME280;47923;42.506;24.192;2022-07-06T03:34:05;95409.97;;;20.06;71.29
61961;BME280;47923;42.506;24.192;2022-07-06T03:36:31;95043.19;;;17.75;69.97
61961;BME280;47923;42.506;24.192;2022-07-06T03:38:57;95395.84;;;20.27;68.86
61961;BME280;47923;42.506;24.192;2022-07-06T03:41:22;95184.72;;;19.08;67.85
61961;BME280;47923;42.506;24.192;2022-07-06T03:43:48;95397.53;;;20.97;66.35
61961;BME280;47923;42.506;24.192;2022-07-06T03:46:13;95382.88;;;21.69;63.83
61961;BME280;47923;42.506;24.192;2022-07-06T03:48:39;95404.56;;;22.12;62.34
61961;BME280;47923;42.506;24.192;2022-07-06T03:51:04;95358.34;;;21.91;61.53
61961;BME280;47923;42.506;24.192;2022-07-06T03:53:31;95405.25;;;22.58;62.35
61961;BME280;47923;42.506;24.192;2022-07-06T03:55:57;95415.88;;;23.74;57.93
61961;BME280;47923;42.506;24.192;2022-07-06T03:58:41;95374.94;;;24.73;54.00
61961;BME280;47923;42.506;24.192;2022-07-06T04:01:06;95271.78;;;24.67;51.88
61961;BME280;47923;42.506;24.192;2022-07-06T04:03:32;95324.78;;;24.52;52.33
61961;BME280;47923;42.506;24.192;2022-07-06T04:05:57;95406.50;;;24.63;53.47
61961;BME280;47923;42.506;24.192;2022-07-06T04:08:23;95398.78;;;23.66;56.28
61961;BME280;47923;42.506;24.192;2022-07-06T04:10:48;95400.13;;;23.11;57.99
61961;BME280;47923;42.506;24.192;2022-07-06T04:13:14;95395.13;;;22.55;60.57
61961;BME280;47923;42.506;24.192;2022-07-06T04:15:39;95394.41;;;22.38;61.09
61961;BME280;47923;42.506;24.192;2022-07-06T04:18:05;95262.19;;;21.29;60.64
61961;BME280;47923;42.506;24.192;2022-07-06T04:20:30;95391.09;;;21.85;63.06
61961;BME280;47923;42.506;24.192;2022-07-06T04:22:56;95399.72;;;21.55;64.33
61961;BME280;47923;42.506;24.192;2022-07-06T04:25:21;95395.63;;;21.30;65.18
61961;BME280;47923;42.506;24.192;2022-07-06T04:27:47;95398.16;;;21.21;65.36
61961;BME280;47923;42.506;24.192;2022-07-06T04:30:13;95398.41;;;21.27;65.70
61961;BME280;47923;42.506;24.192;2022-07-06T04:32:38;95372.81;;;21.13;65.42
61961;BME280;47923;42.506;24.192;2022-07-06T04:35:05;95136.50;;;19.54;65.63
61961;BME280;47923;42.506;24.192;2022-07-06T04:37:31;94955.59;;;18.29;66.27
61961;BME280;47923;42.506;24.192;2022-07-06T04:39:57;95280.47;;;20.34;65.78
61961;BME280;47923;42.506;24.192;2022-07-06T04:42:23;95281.66;;;20.33;65.42
61961;BME280;47923;42.506;24.192;2022-07-06T04:44:48;95385.66;;;21.00;65.77
61961;BME280;47923;42.506;24.192;2022-07-06T04:47:14;95360.00;;;20.74;66.48
61961;BME280;47923;42.506;24.192;2022-07-06T04:49:40;95411.19;;;21.17;66.08
61961;BME280;47923;42.506;24.192;2022-07-06T04:52:05;95107.16;;;19.35;66.68
61961;BME280;47923;42.506;24.192;2022-07-06T04:54:31;95414.69;;;21.37;66.81
61961;BME280;47923;42.506;24.192;2022-07-06T04:56:57;95201.22;;;20.04;66.79
61961;BME280;47923;42.506;24.192;2022-07-06T04:59:22;95422.16;;;21.53;65.71
61961;BME280;47923;42.506;24.192;2022-07-06T05:01:48;95426.78;;;21.56;64.92
61961;BME280;47923;42.506;24.192;2022-07-06T05:04:14;95391.56;;;21.35;64.85
61961;BME280;47923;42.506;24.192;2022-07-06T05:06:39;95074.00;;;19.29;64.41
61961;BME280;47923;42.506;24.192;2022-07-06T05:09:05;95400.25;;;21.49;64.44
61961;BME280;47923;42.506;24.192;2022-07-06T05:11:31;95223.59;;;20.55;62.74
61961;BME280;47923;42.506;24.192;2022-07-06T05:13:57;95404.69;;;21.76;63.14
61961;BME280;47923;42.506;24.192;2022-07-06T05:16:23;95016.06;;;19.30;62.92
61961;BME280;47923;42.506;24.192;2022-07-06T05:18:48;95384.09;;;21.68;62.51
61961;BME280;47923;42.506;24.192;2022-07-06T05:21:14;95428.44;;;21.99;62.69
61961;BME280;47923;42.506;24.192;2022-07-06T05:23:40;95433.06;;;22.02;61.55
61961;BME280;47923;42.506;24.192;2022-07-06T05:26:06;95437.13;;;21.97;62.12
61961;BME280;47923;42.506;24.192;2022-07-06T05:28:31;95379.94;;;21.76;61.17
61961;BME280;47923;42.506;24.192;2022-07-06T05:30:57;95352.38;;;21.63;60.64
61961;BME280;47923;42.506;24.192;2022-07-06T05:33:22;95408.75;;;22.00;60.18
61961;BME280;47923;42.506;24.192;2022-07-06T05:35:48;95448.59;;;22.25;60.49
61961;BME280;47923;42.506;24.192;2022-07-06T05:38:13;95446.88;;;22.31;60.37
61961;BME280;47923;42.506;24.192;2022-07-06T05:40:39;95456.66;;;22.32;60.69
61961;BME280;47923;42.506;24.192;2022-07-06T05:43:04;95449.75;;;22.27;61.40
61961;BME280;47923;42.506;24.192;2022-07-06T05:45:30;95261.06;;;21.10;60.10
61961;BME280;47923;42.506;24.192;2022-07-06T05:47:55;95459.16;;;22.43;59.94
61961;BME280;47923;42.506;24.192;2022-07-06T05:50:40;95425.88;;;22.37;60.03
61961;BME280;47923;42.506;24.192;2022-07-06T05:53:05;95322.16;;;21.63;60.07
61961;BME280;47923;42.506;24.192;2022-07-06T05:55:31;95288.63;;;21.68;59.12
61961;BME280;47923;42.506;24.192;2022-07-06T05:57:57;95455.03;;;22.93;58.87
61961;BME280;47923;42.506;24.192;2022-07-06T06:00:24;95291.13;;;22.21;58.06
61961;BME280;47923;42.506;24.192;2022-07-06T06:02:50;95210.63;;;22.04;56.73
61961;BME280;47923;42.506;24.192;2022-07-06T06:05:17;95443.47;;;23.74;55.29
61961;BME280;47923;42.506;24.192;2022-07-06T06:07:43;95243.94;;;22.86;54.92
61961;BME280;47923;42.506;24.192;2022-07-06T06:10:13;95456.00;;;24.22;55.53
61961;BME280;47923;42.506;24.192;2022-07-06T06:12:39;94930.03;;;20.67;55.75
61961;BME280;47923;42.506;24.192;2022-07-06T06:15:06;95423.03;;;24.19;54.85
61961;BME280;47923;42.506;24.192;2022-07-06T06:17:32;95441.69;;;24.71;54.48
61961;BME280;47923;42.506;24.192;2022-07-06T06:19:58;95450.13;;;24.99;53.29
61961;BME280;47923;42.506;24.192;2022-07-06T06:22:23;95220.44;;;23.63;52.65
61961;BME280;47923;42.506;24.192;2022-07-06T06:24:50;95078.25;;;23.09;50.91
61961;BME280;47923;42.506;24.192;2022-07-06T06:27:17;95307.41;;;25.05;49.70
61961;BME280;47923;42.506;24.192;2022-07-06T06:29:42;95449.69;;;26.39;48.26
61961;BME280;47923;42.506;24.192;2022-07-06T06:32:10;95476.59;;;26.76;48.02
61961;BME280;47923;42.506;24.192;2022-07-06T06:34:36;95430.72;;;26.75;47.59
61961;BME280;47923;42.506;24.192;2022-07-06T06:37:01;95464.06;;;27.08;47.81
61961;BME280;47923;42.506;24.192;2022-07-06T06:39:27;95453.81;;;27.41;45.78
61961;BME280;47923;42.506;24.192;2022-07-06T06:41:53;95451.16;;;27.47;45.63
61961;BME280;47923;42.506;24.192;2022-07-06T06:44:18;95398.72;;;27.25;45.92
61961;BME280;47923;42.506;24.192;2022-07-06T06:46:44;95429.13;;;27.43;45.65
61961;BME280;47923;42.506;24.192;2022-07-06T06:49:10;95463.41;;;28.45;44.30
61961;BME280;47923;42.506;24.192;2022-07-06T06:51:36;95399.38;;;30.34;39.81
61961;BME280;47923;42.506;24.192;2022-07-06T06:54:03;95448.16;;;33.21;34.72
61961;BME280;47923;42.506;24.192;2022-07-06T06:56:28;95292.25;;;33.91;31.13
61961;BME280;47923;42.506;24.192;2022-07-06T06:58:54;95424.81;;;36.11;29.25
61961;BME280;47923;42.506;24.192;2022-07-06T07:01:19;95307.41;;;36.73;27.15
61961;BME280;47923;42.506;24.192;2022-07-06T07:03:45;95424.88;;;37.56;26.64
61961;BME280;47923;42.506;24.192;2022-07-06T07:06:10;95417.06;;;38.94;24.78
61961;BME280;47923;42.506;24.192;2022-07-06T07:08:36;95314.56;;;39.49;22.95
61961;BME280;47923;42.506;24.192;2022-07-06T07:11:01;95422.38;;;41.19;21.80
61961;BME280;47923;42.506;24.192;2022-07-06T07:13:27;95252.03;;;39.24;22.63
61961;BME280;47923;42.506;24.192;2022-07-06T07:15:53;95419.28;;;40.94;21.26
61961;BME280;47923;42.506;24.192;2022-07-06T07:18:18;95375.00;;;40.68;21.71
61961;BME280;47923;42.506;24.192;2022-07-06T07:20:44;95382.25;;;40.84;20.91
61961;BME280;47923;42.506;24.192;2022-07-06T07:23:09;95417.91;;;40.87;21.77
61961;BME280;47923;42.506;24.192;2022-07-06T07:25:35;95430.16;;;41.33;20.95
61961;BME280;47923;42.506;24.192;2022-07-06T07:28:00;95424.41;;;40.51;21.58
61961;BME280;47923;42.506;24.192;2022-07-06T07:30:26;95418.81;;;41.33;20.92
61961;BME280;47923;42.506;24.192;2022-07-06T07:32:51;95426.97;;;41.60;20.64
61961;BME280;47923;42.506;24.192;2022-07-06T07:35:17;95384.41;;;41.14;20.97
61961;BME280;47923;42.506;24.192;2022-07-06T07:37:42;95409.63;;;42.65;19.17
61961;BME280;47923;42.506;24.192;2022-07-06T07:40:08;95331.66;;;40.37;21.00
61961;BME280;47923;42.506;24.192;2022-07-06T07:42:33;95334.22;;;40.12;21.37
61961;BME280;47923;42.506;24.192;2022-07-06T07:44:59;95412.69;;;40.47;21.49
61961;BME280;47923;42.506;24.192;2022-07-06T07:47:24;95350.91;;;39.24;22.50
61961;BME280;47923;42.506;24.192;2022-07-06T07:49:50;95372.38;;;37.98;23.88
61961;BME280;47923;42.506;24.192;2022-07-06T07:52:15;95276.66;;;36.06;25.74
61961;BME280;47923;42.506;24.192;2022-07-06T07:54:41;95410.81;;;36.30;26.74
61961;BME280;47923;42.506;24.192;2022-07-06T07:57:06;95407.34;;;36.61;26.71
61961;BME280;47923;42.506;24.192;2022-07-06T07:59:32;95406.44;;;36.10;26.80
61961;BME280;47923;42.506;24.192;2022-07-06T08:01:58;95176.44;;;33.77;28.23
61961;BME280;47923;42.506;24.192;2022-07-06T08:04:23;95281.03;;;34.79;28.21
61961;BME280;47923;42.506;24.192;2022-07-06T08:06:49;95174.53;;;35.60;25.78
61961;BME280;47923;42.506;24.192;2022-07-06T08:09:15;95282.38;;;37.87;23.78
61961;BME280;47923;42.506;24.192;2022-07-06T08:11:42;95398.06;;;38.95;22.91
61961;BME280;47923;42.506;24.192;2022-07-06T08:14:08;95259.34;;;38.09;23.19
61961;BME280;47923;42.506;24.192;2022-07-06T08:16:33;95402.78;;;39.55;23.14
61961;BME280;47923;42.506;24.192;2022-07-06T08:18:59;95363.56;;;37.62;24.68
61961;BME280;47923;42.506;24.192;2022-07-06T08:21:24;95409.78;;;36.51;26.23
61961;BME280;47923;42.506;24.192;2022-07-06T08:23:50;95401.69;;;35.50;27.41
61961;BME280;47923;42.506;24.192;2022-07-06T08:26:16;95406.97;;;34.47;29.70
61961;BME280;47923;42.506;24.192;2022-07-06T08:28:41;95288.25;;;34.27;28.31
61961;BME280;47923;42.506;24.192;2022-07-06T08:31:07;95408.72;;;36.11;27.80
61961;BME280;47923;42.506;24.192;2022-07-06T08:33:32;95414.28;;;36.60;27.01
61961;BME280;47923;42.506;24.192;2022-07-06T08:35:58;95305.38;;;36.17;26.87
61961;BME280;47923;42.506;24.192;2022-07-06T08:38:24;95417.38;;;36.13;27.31
61961;BME280;47923;42.506;24.192;2022-07-06T08:40:50;95388.13;;;36.03;26.94
61961;BME280;47923;42.506;24.192;2022-07-06T08:43:16;95265.03;;;35.04;27.04
61961;BME280;47923;42.506;24.192;2022-07-06T08:45:43;95216.78;;;34.45;26.71
61961;BME280;47923;42.506;24.192;2022-07-06T08:48:10;95380.06;;;35.88;25.82
61961;BME280;47923;42.506;24.192;2022-07-06T08:50:37;95368.09;;;37.65;23.72
61961;BME280;47923;42.506;24.192;2022-07-06T08:53:03;95403.94;;;39.81;21.84
61961;BME280;47923;42.506;24.192;2022-07-06T08:55:29;95403.78;;;42.63;18.94
61961;BME280;47923;42.506;24.192;2022-07-06T08:57:56;95404.41;;;43.76;17.67
61961;BME280;47923;42.506;24.192;2022-07-06T09:00:25;95385.19;;;42.69;18.80
61961;BME280;47923;42.506;24.192;2022-07-06T09:02:51;95397.56;;;40.89;20.91
61961;BME280;47923;42.506;24.192;2022-07-06T09:05:21;95398.06;;;41.61;20.54
61961;BME280;47923;42.506;24.192;2022-07-06T09:07:49;95355.13;;;40.09;21.06
61961;BME280;47923;42.506;24.192;2022-07-06T09:10:18;95392.56;;;38.29;24.12
61961;BME280;47923;42.506;24.192;2022-07-06T09:12:44;95401.09;;;36.87;26.55
61961;BME280;47923;42.506;24.192;2022-07-06T09:15:10;95367.41;;;37.46;25.59
61961;BME280;47923;42.506;24.192;2022-07-06T09:17:40;95024.69;;;35.01;25.47
61961;BME280;47923;42.506;24.192;2022-07-06T09:20:10;95208.22;;;34.62;27.15
61961;BME280;47923;42.506;24.192;2022-07-06T09:22:37;95243.00;;;34.83;27.54
61961;BME280;47923;42.506;24.192;2022-07-06T09:25:09;95394.25;;;35.53;27.78
61961;BME280;47923;42.506;24.192;2022-07-06T09:27:45;95366.06;;;35.34;27.73
61961;BME280;47923;42.506;24.192;2022-07-06T09:30:13;95407.84;;;35.13;28.54
61961;BME280;47923;42.506;24.192;2022-07-06T09:32:45;95266.66;;;35.18;27.58
61961;BME280;47923;42.506;24.192;2022-07-06T09:35:38;95348.28;;;37.12;24.96
61961;BME280;47923;42.506;24.192;2022-07-06T09:40:41;95278.53;;;36.35;26.06
61961;BME280;47923;42.506;24.192;2022-07-06T09:43:14;95402.88;;;38.87;23.30
61961;BME280;47923;42.506;24.192;2022-07-06T09:45:43;95389.53;;;39.50;22.61
61961;BME280;47923;42.506;24.192;2022-07-06T09:48:13;95109.16;;;37.41;22.86
61961;BME280;47923;42.506;24.192;2022-07-06T09:50:44;95385.63;;;39.32;22.67
61961;BME280;47923;42.506;24.192;2022-07-06T09:53:10;95236.44;;;37.39;23.88
61961;BME280;47923;42.506;24.192;2022-07-06T09:55:36;95091.06;;;36.70;23.61
61961;BME280;47923;42.506;24.192;2022-07-06T09:58:03;95383.50;;;39.25;22.68
61961;BME280;47923;42.506;24.192;2022-07-06T10:00:28;95377.84;;;39.25;22.66
61961;BME280;47923;42.506;24.192;2022-07-06T10:02:54;95387.13;;;37.91;24.10
61961;BME280;47923;42.506;24.192;2022-07-06T10:05:21;95375.69;;;36.36;26.39
61961;BME280;47923;42.506;24.192;2022-07-06T10:07:56;95362.00;;;35.29;28.62
61961;BME280;47923;42.506;24.192;2022-07-06T10:10:25;95231.56;;;35.06;27.66
61961;BME280;47923;42.506;24.192;2022-07-06T10:12:51;95335.25;;;36.02;26.59
61961;BME280;47923;42.506;24.192;2022-07-06T10:15:21;95378.44;;;35.98;27.17
61961;BME280;47923;42.506;24.192;2022-07-06T10:17:47;95389.09;;;36.68;26.75
61961;BME280;47923;42.506;24.192;2022-07-06T10:20:15;95379.81;;;36.54;26.19
61961;BME280;47923;42.506;24.192;2022-07-06T10:22:40;95386.13;;;35.98;26.87
61961;BME280;47923;42.506;24.192;2022-07-06T10:25:06;95156.03;;;33.82;27.25
61961;BME280;47923;42.506;24.192;2022-07-06T10:27:33;95383.91;;;34.65;28.63
61961;BME280;47923;42.506;24.192;2022-07-06T10:30:00;95391.13;;;33.63;30.07
61961;BME280;47923;42.506;24.192;2022-07-06T10:32:27;95392.16;;;33.26;31.31
61961;BME280;47923;42.506;24.192;2022-07-06T10:34:53;95363.06;;;33.97;30.09
61961;BME280;47923;42.506;24.192;2022-07-06T10:37:26;95389.41;;;33.38;30.61
61961;BME280;47923;42.506;24.192;2022-07-06T10:39:52;95372.66;;;32.28;31.95
61961;BME280;47923;42.506;24.192;2022-07-06T10:42:44;94986.59;;;28.48;34.13
61961;BME280;47923;42.506;24.192;2022-07-06T10:45:13;95256.78;;;28.57;37.86
61961;BME280;47923;42.506;24.192;2022-07-06T10:47:40;95386.69;;;29.07;39.32
61961;BME280;47923;42.506;24.192;2022-07-06T10:50:06;95303.03;;;28.31;39.71
61961;BME280;47923;42.506;24.192;2022-07-06T10:52:57;95353.09;;;28.22;40.18
61961;BME280;47923;42.506;24.192;2022-07-06T10:55:48;95376.81;;;29.21;38.93
61961;BME280;47923;42.506;24.192;2022-07-06T10:58:41;95377.78;;;29.17;39.01
61961;BME280;47923;42.506;24.192;2022-07-06T11:01:12;95380.19;;;29.45;38.89
61961;BME280;47923;42.506;24.192;2022-07-06T11:06:19;95398.72;;;29.83;37.97
61961;BME280;47923;42.506;24.192;2022-07-06T11:08:59;95397.00;;;29.36;38.78
61961;BME280;47923;42.506;24.192;2022-07-06T11:16:24;95392.75;;;29.05;39.88
61961;BME280;47923;42.506;24.192;2022-07-06T11:19:09;95406.13;;;28.62;40.17
61961;BME280;47923;42.506;24.192;2022-07-06T11:21:36;95421.34;;;28.38;40.80
61961;BME280;47923;42.506;24.192;2022-07-06T11:24:04;95392.69;;;28.31;41.59
61961;BME280;47923;42.506;24.192;2022-07-06T11:26:30;95032.28;;;25.74;41.98
61961;BME280;47923;42.506;24.192;2022-07-06T11:28:58;95397.41;;;28.40;41.48
61961;BME280;47923;42.506;24.192;2022-07-06T11:31:24;95383.81;;;28.18;41.97
61961;BME280;47923;42.506;24.192;2022-07-06T11:33:49;95376.22;;;28.04;42.53
61961;BME280;47923;42.506;24.192;2022-07-06T11:36:17;95279.41;;;27.10;43.98
61961;BME280;47923;42.506;24.192;2022-07-06T11:38:43;94926.41;;;24.70;43.78
61961;BME280;47923;42.506;24.192;2022-07-06T11:41:10;95014.28;;;25.78;43.08
61961;BME280;47923;42.506;24.192;2022-07-06T11:43:37;95094.72;;;26.89;41.95
61961;BME280;47923;42.506;24.192;2022-07-06T11:46:17;95343.16;;;29.18;39.80
61961;BME280;47923;42.506;24.192;2022-07-06T11:48:50;95348.38;;;29.66;37.89
61961;BME280;47923;42.506;24.192;2022-07-06T11:51:15;95372.69;;;30.27;37.21
61961;BME280;47923;42.506;24.192;2022-07-06T11:53:50;95130.16;;;28.92;36.47
61961;BME280;47923;42.506;24.192;2022-07-06T11:56:16;95307.31;;;30.48;35.61
61961;BME280;47923;42.506;24.192;2022-07-06T11:58:45;95373.44;;;31.00;35.09
61961;BME280;47923;42.506;24.192;2022-07-06T12:01:13;95359.00;;;31.01;34.97
61961;BME280;47923;42.506;24.192;2022-07-06T12:03:38;95113.31;;;29.21;35.47
61961;BME280;47923;42.506;24.192;2022-07-06T12:06:05;95116.75;;;29.31;35.58
61961;BME280;47923;42.506;24.192;2022-07-06T12:08:31;95173.06;;;29.46;35.37
61961;BME280;47923;42.506;24.192;2022-07-06T12:10:59;95349.75;;;30.90;36.00
61961;BME280;47923;42.506;24.192;2022-07-06T12:13:25;95359.75;;;31.33;35.14
61961;BME280;47923;42.506;24.192;2022-07-06T12:15:50;95351.31;;;31.28;34.68
61961;BME280;47923;42.506;24.192;2022-07-06T12:18:16;95351.06;;;31.26;35.36
61961;BME280;47923;42.506;24.192;2022-07-06T12:20:42;95348.81;;;30.98;35.43
61961;BME280;47923;42.506;24.192;2022-07-06T12:23:08;95293.19;;;30.32;36.07
61961;BME280;47923;42.506;24.192;2022-07-06T12:25:35;95297.84;;;30.40;35.87
61961;BME280;47923;42.506;24.192;2022-07-06T12:28:01;95358.94;;;30.96;35.53
61961;BME280;47923;42.506;24.192;2022-07-06T12:30:26;95298.81;;;30.63;35.55
61961;BME280;47923;42.506;24.192;2022-07-06T12:33:14;95337.50;;;31.13;34.67
61961;BME280;47923;42.506;24.192;2022-07-06T12:35:41;95211.09;;;30.01;35.12
61961;BME280;47923;42.506;24.192;2022-07-06T12:38:07;95229.72;;;30.15;35.12
61961;BME280;47923;42.506;24.192;2022-07-06T12:40:36;95335.03;;;30.89;34.94
61961;BME280;47923;42.506;24.192;2022-07-06T12:43:02;95336.38;;;30.94;35.26
61961;BME280;47923;42.506;24.192;2022-07-06T12:45:29;95219.09;;;30.14;34.81
61961;BME280;47923;42.506;24.192;2022-07-06T12:48:03;95056.06;;;28.88;34.71
61961;BME280;47923;42.506;24.192;2022-07-06T12:50:34;95196.84;;;29.47;35.51
61961;BME280;47923;42.506;24.192;2022-07-06T12:53:00;95328.22;;;30.38;35.86
61961;BME280;47923;42.506;24.192;2022-07-06T12:55:28;95072.03;;;28.53;35.44
61961;BME280;47923;42.506;24.192;2022-07-06T12:57:54;95320.84;;;30.35;35.40
61961;BME280;47923;42.506;24.192;2022-07-06T13:00:21;95323.34;;;30.59;34.26